createdAt,value
2022-09-12T00:00:45.317Z,68.66
2022-09-12T00:03:12.274Z,68.70
2022-09-12T00:05:47.427Z,68.68
2022-09-12T00:08:15.394Z,68.85
2022-09-12T00:10:44.240Z,68.79
2022-09-12T00:13:11.815Z,68.66
2022-09-12T00:15:40.659Z,68.86
2022-09-12T00:18:09.465Z,68.76
2022-09-12T00:20:36.388Z,68.90
2022-09-12T00:23:03.359Z,68.80
2022-09-12T00:25:31.515Z,68.83
2022-09-12T00:27:58.591Z,68.86
2022-09-12T00:30:25.581Z,68.90
2022-09-12T00:32:54.977Z,69.08
2022-09-12T00:35:21.972Z,68.73
2022-09-12T00:37:49.726Z,68.80
2022-09-12T00:40:17.206Z,68.75
2022-09-12T00:42:44.122Z,68.98
2022-09-12T00:45:23.522Z,69.03
2022-09-12T00:47:50.622Z,68.73
2022-09-12T00:50:18.245Z,68.97
2022-09-12T00:52:51.232Z,68.85
2022-09-12T00:55:22.823Z,68.68
2022-09-12T00:58:06.858Z,68.75
2022-09-12T01:00:34.096Z,68.96
2022-09-12T01:03:04.684Z,69.11
2022-09-12T01:05:35.515Z,69.01
2022-09-12T01:08:06.532Z,69.00
2022-09-12T01:10:37.818Z,68.97
2022-09-12T01:13:09.374Z,68.84
2022-09-12T01:15:40.410Z,69.16
2022-09-12T01:18:09.856Z,68.95
2022-09-12T01:21:17.039Z,69.02
2022-09-12T01:24:11.821Z,68.93
2022-09-12T01:26:57.405Z,68.96
2022-09-12T01:29:46.036Z,69.14
2022-09-12T01:32:28.721Z,69.03
2022-09-12T01:35:17.122Z,68.94
2022-09-12T01:37:59.997Z,69.07
2022-09-12T01:40:46.017Z,69.25
2022-09-12T01:43:35.749Z,69.21
2022-09-12T01:46:43.909Z,69.11
2022-09-12T01:49:18.936Z,69.43
2022-09-12T01:52:27.722Z,69.02
2022-09-12T01:55:16.138Z,69.06
2022-09-12T01:57:54.248Z,69.37
2022-09-12T02:00:21.105Z,69.11
2022-09-12T02:03:02.928Z,68.98
2022-09-12T02:06:06.830Z,69.09
2022-09-12T02:08:40.955Z,69.18
2022-09-12T02:11:11.121Z,69.02
2022-09-12T02:13:50.458Z,69.46
2022-09-12T02:16:30.588Z,69.09
2022-09-12T02:19:07.767Z,69.11
2022-09-12T02:21:37.410Z,69.09
2022-09-12T02:24:07.742Z,69.10
2022-09-12T02:26:40.152Z,68.88
2022-09-12T02:29:07.394Z,69.19
2022-09-12T02:31:36.855Z,68.95
2022-09-12T02:34:15.285Z,69.22
2022-09-12T02:37:07.969Z,69.21
2022-09-12T02:39:35.508Z,69.25
2022-09-12T02:42:04.159Z,69.16
2022-09-12T02:44:33.382Z,69.15
2022-09-12T02:47:06.760Z,69.21
2022-09-12T02:49:33.960Z,69.01
2022-09-12T02:52:01.697Z,69.18
2022-09-12T02:54:29.717Z,69.08
2022-09-12T02:56:56.745Z,69.12
2022-09-12T02:59:25.205Z,69.39
2022-09-12T03:02:13.838Z,69.21
2022-09-12T03:04:59.442Z,69.34
2022-09-12T03:07:47.820Z,69.32
2022-09-12T03:10:17.418Z,69.19
2022-09-12T03:12:59.751Z,68.92
2022-09-12T03:15:43.761Z,69.22
2022-09-12T03:18:30.060Z,69.32
2022-09-12T03:21:21.267Z,69.08
2022-09-12T03:23:50.963Z,69.37
2022-09-12T03:26:26.766Z,68.98
2022-09-12T03:28:56.183Z,69.07
2022-09-12T03:31:23.289Z,69.22
2022-09-12T03:33:50.222Z,69.26
2022-09-12T03:36:23.213Z,69.15
2022-09-12T03:38:50.223Z,69.21
2022-09-12T03:41:17.183Z,69.26
2022-09-12T03:43:44.635Z,69.33
2022-09-12T03:46:11.484Z,69.16
2022-09-12T03:48:38.366Z,69.28
2022-09-12T03:51:08.022Z,69.39
2022-09-12T03:53:34.963Z,69.32
2022-09-12T03:56:06.715Z,69.34
2022-09-12T03:58:34.202Z,69.37
2022-09-12T04:01:01.140Z,69.41
2022-09-12T04:03:27.973Z,69.29
2022-09-12T04:05:57.918Z,69.50
2022-09-12T04:08:24.811Z,69.28
2022-09-12T04:10:51.690Z,69.47
2022-09-12T04:13:18.499Z,69.36
2022-09-12T04:15:56.512Z,69.42
2022-09-12T04:18:23.322Z,69.22
2022-09-12T04:20:50.083Z,69.35
2022-09-12T04:23:17.082Z,69.36
2022-09-12T04:25:43.910Z,69.24
2022-09-12T04:28:10.867Z,69.29
2022-09-12T04:30:38.264Z,69.36
2022-09-12T04:33:08.137Z,69.30
2022-09-12T04:35:36.338Z,69.42
2022-09-12T04:38:04.146Z,69.45
2022-09-12T04:40:31.801Z,69.42
2022-09-12T04:42:58.612Z,69.39
2022-09-12T04:45:26.122Z,69.47
2022-09-12T04:47:53.183Z,69.50
2022-09-12T04:50:20.031Z,69.45
2022-09-12T04:52:54.397Z,69.65
2022-09-12T04:55:22.242Z,69.54
2022-09-12T04:57:49.281Z,69.60
2022-09-12T05:00:16.219Z,69.34
2022-09-12T05:02:43.140Z,69.49
2022-09-12T05:05:12.634Z,69.32
2022-09-12T05:07:39.551Z,69.19
2022-09-12T05:10:07.154Z,69.28
2022-09-12T05:12:34.208Z,69.31
2022-09-12T05:15:01.084Z,69.31
2022-09-12T05:17:30.125Z,69.52
2022-09-12T05:19:56.907Z,69.64
2022-09-12T05:22:23.916Z,69.61
2022-09-12T05:24:50.896Z,69.75
2022-09-12T05:27:18.114Z,69.95
2022-09-12T05:29:45.017Z,70.19
2022-09-12T05:32:12.851Z,70.14
2022-09-12T05:34:40.769Z,70.16
2022-09-12T05:37:07.950Z,70.46
2022-09-12T05:39:34.778Z,70.47
2022-09-12T05:42:01.682Z,70.31
2022-09-12T05:44:28.956Z,70.23
2022-09-12T05:46:55.912Z,70.44
2022-09-12T05:49:22.933Z,70.34
2022-09-12T05:51:51.058Z,70.90
2022-09-12T05:54:20.774Z,69.46
2022-09-12T05:56:49.247Z,69.61
2022-09-12T05:59:19.464Z,69.69
2022-09-12T06:01:46.869Z,70.30
2022-09-12T06:04:13.807Z,70.08
2022-09-12T06:06:45.340Z,70.30
2022-09-12T06:09:14.292Z,70.35
2022-09-12T06:11:42.235Z,69.95
2022-09-12T06:14:11.520Z,69.90
2022-09-12T06:16:39.483Z,70.11
2022-09-12T06:19:28.359Z,69.89
2022-09-12T06:21:55.736Z,69.90
2022-09-12T06:24:22.843Z,69.87
2022-09-12T06:26:53.024Z,69.93
2022-09-12T06:29:20.104Z,69.83
2022-09-12T06:31:47.123Z,69.78
2022-09-12T06:34:16.507Z,69.91
2022-09-12T06:36:46.114Z,70.01
2022-09-12T06:39:18.562Z,70.12
2022-09-12T06:41:45.979Z,69.92
2022-09-12T06:44:18.244Z,69.63
2022-09-12T06:46:45.295Z,69.69
2022-09-12T06:49:12.603Z,69.51
2022-09-12T06:51:39.616Z,69.68
2022-09-12T06:54:06.515Z,69.75
2022-09-12T06:56:34.441Z,69.73
2022-09-12T06:59:01.534Z,69.97
2022-09-12T07:01:31.387Z,69.79
2022-09-12T07:04:04.251Z,69.75
2022-09-12T07:06:42.155Z,69.91
2022-09-12T07:09:12.073Z,70.03
2022-09-12T07:11:40.973Z,70.13
2022-09-12T07:14:10.316Z,70.07
2022-09-12T07:16:37.457Z,70.27
2022-09-12T07:19:06.376Z,70.37
2022-09-12T07:21:33.583Z,70.40
2022-09-12T07:24:00.504Z,70.49
2022-09-12T07:26:29.326Z,70.35
2022-09-12T07:29:13.164Z,70.78
2022-09-12T07:31:45.871Z,70.54
2022-09-12T07:34:14.310Z,70.84
2022-09-12T07:36:41.266Z,70.61
2022-09-12T07:39:08.237Z,70.59
2022-09-12T07:41:35.188Z,70.65
2022-09-12T07:44:04.109Z,70.68
2022-09-12T07:46:32.231Z,70.65
2022-09-12T07:49:00.624Z,70.68
2022-09-12T07:51:29.791Z,70.58
2022-09-12T07:53:57.016Z,70.77
2022-09-12T07:56:29.310Z,70.79
2022-09-12T07:58:57.760Z,70.72
2022-09-12T08:01:25.214Z,71.00
2022-09-12T08:03:57.948Z,70.65
2022-09-12T08:06:27.285Z,70.72
2022-09-12T08:08:59.621Z,70.82
2022-09-12T08:11:29.023Z,70.77
2022-09-12T08:13:58.356Z,70.84
2022-09-12T08:16:28.518Z,70.54
2022-09-12T08:18:55.863Z,70.86
2022-09-12T08:21:27.604Z,70.61
2022-09-12T08:24:01.231Z,70.65
2022-09-12T08:26:28.768Z,70.60
2022-09-12T08:28:56.111Z,70.44
2022-09-12T08:31:25.894Z,70.72
2022-09-12T08:33:58.615Z,70.54
2022-09-12T08:36:27.999Z,70.63
2022-09-12T08:39:06.406Z,70.62
2022-09-12T08:41:38.146Z,70.49
2022-09-12T08:44:17.075Z,70.41
2022-09-12T08:47:10.947Z,70.33
2022-09-12T08:50:02.301Z,70.24
2022-09-12T08:52:59.758Z,70.33
2022-09-12T08:55:31.706Z,70.46
2022-09-12T08:58:01.128Z,70.57
2022-09-12T09:00:43.261Z,70.79
2022-09-12T09:03:25.414Z,70.60
2022-09-12T09:06:03.437Z,70.43
2022-09-12T09:08:36.437Z,70.53
2022-09-12T09:11:25.440Z,70.49
2022-09-12T09:14:29.750Z,70.26
2022-09-12T09:17:00.074Z,70.58
2022-09-12T09:19:36.781Z,70.28
2022-09-12T09:22:07.683Z,70.59
2022-09-12T09:24:43.450Z,70.75
2022-09-12T09:27:39.346Z,70.62
2022-09-12T09:30:15.870Z,70.78
2022-09-12T09:32:44.585Z,70.33
2022-09-12T09:35:38.197Z,70.66
2022-09-12T09:38:15.631Z,70.68
2022-09-12T09:41:04.491Z,70.66
2022-09-12T09:43:31.711Z,70.49
2022-09-12T09:46:01.670Z,70.38
2022-09-12T09:48:42.492Z,70.17
2022-09-12T09:51:09.941Z,70.50
2022-09-12T09:53:53.447Z,70.15
2022-09-12T09:56:41.131Z,70.38
2022-09-12T09:59:32.188Z,70.39
2022-09-12T10:02:04.293Z,70.37
2022-09-12T10:04:40.614Z,70.50
2022-09-12T10:07:24.712Z,70.26
2022-09-12T10:10:15.186Z,70.02
2022-09-12T10:12:42.853Z,70.09
2022-09-12T10:15:26.880Z,69.78
2022-09-12T10:17:56.059Z,70.03
2022-09-12T10:20:41.982Z,70.24
2022-09-12T10:23:30.702Z,69.95
2022-09-12T10:26:01.114Z,69.97
2022-09-12T10:28:41.428Z,70.07
2022-09-12T10:31:11.547Z,69.92
2022-09-12T10:33:52.955Z,70.03
2022-09-12T10:36:21.196Z,69.86
2022-09-12T10:39:01.488Z,69.97
2022-09-12T10:41:38.469Z,69.70
2022-09-12T10:44:19.383Z,69.36
2022-09-12T10:46:47.478Z,69.68
2022-09-12T10:49:14.435Z,68.95
2022-09-12T10:51:41.645Z,69.35
2022-09-12T10:54:11.834Z,69.45
2022-09-12T10:56:53.623Z,69.26
2022-09-12T11:00:18.202Z,69.52
2022-09-12T11:02:52.820Z,69.52
2022-09-12T11:05:44.866Z,69.29
2022-09-12T11:08:24.350Z,69.39
2022-09-12T11:11:05.415Z,69.49
2022-09-12T11:13:51.121Z,69.48
2022-09-12T11:16:23.375Z,68.66
2022-09-12T11:19:32.152Z,68.85
2022-09-12T11:22:06.045Z,68.61
2022-09-12T11:25:10.989Z,68.39
2022-09-12T11:27:37.823Z,68.49
2022-09-12T11:30:16.634Z,68.78
2022-09-12T11:33:21.036Z,68.98
2022-09-12T11:35:55.202Z,68.78
2022-09-12T11:38:37.389Z,68.83
2022-09-12T11:41:11.938Z,68.79
2022-09-12T11:43:55.171Z,68.59
2022-09-12T11:46:38.829Z,68.83
2022-09-12T11:49:14.644Z,68.40
2022-09-12T11:52:24.182Z,68.44
2022-09-12T11:55:12.165Z,68.43
2022-09-12T11:57:46.076Z,68.32
2022-09-12T12:00:20.576Z,68.34
2022-09-12T12:02:56.487Z,68.23
2022-09-12T12:05:55.401Z,68.31
2022-09-12T12:08:26.899Z,68.51
2022-09-12T12:11:00.093Z,68.37
2022-09-12T12:13:32.980Z,68.92
2022-09-12T12:16:05.199Z,69.06
2022-09-12T12:18:34.720Z,68.93
2022-09-12T12:21:23.525Z,69.27
2022-09-12T12:24:08.862Z,66.84
2022-09-12T12:26:42.677Z,66.13
2022-09-12T12:29:35.313Z,67.96
2022-09-12T12:32:05.086Z,68.38
2022-09-12T12:34:35.921Z,68.70
2022-09-12T12:37:21.291Z,68.62
2022-09-12T12:39:48.430Z,68.88
2022-09-12T12:42:34.041Z,68.71
2022-09-12T12:45:02.382Z,68.48
2022-09-12T12:47:40.410Z,68.55
2022-09-12T12:50:21.925Z,68.25
2022-09-12T12:52:54.063Z,68.51
2022-09-12T12:55:26.845Z,66.15
2022-09-12T12:57:59.250Z,63.51
2022-09-12T13:00:30.134Z,61.79
2022-09-12T13:03:06.963Z,61.65
2022-09-12T13:05:44.402Z,63.63
2022-09-12T13:08:30.326Z,65.44
2022-09-12T13:11:00.114Z,65.92
2022-09-12T13:13:58.361Z,66.60
2022-09-12T13:16:37.831Z,66.49
2022-09-12T13:19:18.176Z,66.69
2022-09-12T13:22:01.490Z,67.16
2022-09-12T13:24:29.228Z,66.87
2022-09-12T13:26:58.249Z,67.00
2022-09-12T13:29:27.436Z,67.18
2022-09-12T13:31:54.288Z,67.01
2022-09-12T13:34:31.773Z,67.04
2022-09-12T13:37:16.704Z,66.95
2022-09-12T13:40:11.172Z,64.39
2022-09-12T13:42:47.426Z,62.61
2022-09-12T13:45:27.244Z,64.81
2022-09-12T13:48:03.685Z,65.92
2022-09-12T13:50:37.523Z,65.98
2022-09-12T13:53:12.986Z,66.16
2022-09-12T13:55:43.096Z,66.18
2022-09-12T13:58:19.583Z,66.27
2022-09-12T14:00:46.833Z,66.25
2022-09-12T14:03:45.929Z,66.70
2022-09-12T14:06:14.053Z,66.43
2022-09-12T14:08:44.003Z,66.58
2022-09-12T14:11:12.556Z,65.08
2022-09-12T14:13:39.879Z,64.36
2022-09-12T14:16:10.193Z,60.75
2022-09-12T14:18:39.243Z,58.95
2022-09-12T14:21:11.131Z,58.22
2022-09-12T14:23:42.883Z,55.76
2022-09-12T14:26:13.188Z,58.79
2022-09-12T14:28:43.340Z,61.67
2022-09-12T14:31:13.212Z,62.62
2022-09-12T14:33:51.005Z,63.50
2022-09-12T14:36:18.808Z,64.03
2022-09-12T14:38:50.624Z,64.47
2022-09-12T14:41:28.343Z,65.01
2022-09-12T14:44:00.414Z,64.98
2022-09-12T14:46:40.073Z,65.22
2022-09-12T14:49:14.508Z,65.60
2022-09-12T14:51:51.169Z,65.69
2022-09-12T14:54:27.860Z,65.35
2022-09-12T14:57:04.768Z,65.73
2022-09-12T14:59:40.192Z,65.85
2022-09-12T15:02:22.425Z,65.69
2022-09-12T15:04:55.948Z,65.82
2022-09-12T15:07:32.012Z,65.93
2022-09-12T15:10:05.481Z,66.11
2022-09-12T15:12:32.654Z,66.19
2022-09-12T15:15:21.379Z,65.95
2022-09-12T15:17:48.759Z,66.12
2022-09-12T15:20:16.206Z,66.11
2022-09-12T15:22:44.189Z,64.56
2022-09-12T15:25:13.045Z,65.56
2022-09-12T15:27:43.202Z,65.92
2022-09-12T15:30:13.455Z,65.97
2022-09-12T15:32:42.898Z,66.32
2022-09-12T15:35:22.713Z,66.20
2022-09-12T15:37:51.632Z,66.38
2022-09-12T15:40:19.424Z,66.22
2022-09-12T15:42:46.730Z,66.13
2022-09-12T15:45:24.239Z,66.13
2022-09-12T15:47:51.709Z,66.31
2022-09-12T15:50:20.569Z,65.90
2022-09-12T15:52:50.738Z,66.20
2022-09-12T15:55:24.588Z,66.43
2022-09-12T15:57:52.017Z,66.32
2022-09-12T16:00:19.684Z,66.02
2022-09-12T16:02:49.522Z,66.17
2022-09-12T16:05:20.024Z,66.02
2022-09-12T16:07:49.548Z,66.40
2022-09-12T16:10:19.330Z,66.40
2022-09-12T16:12:47.202Z,66.55
2022-09-12T16:15:20.764Z,66.43
2022-09-12T16:17:48.879Z,66.42
2022-09-12T16:20:16.862Z,66.45
2022-09-12T16:22:44.608Z,66.17
2022-09-12T16:25:12.680Z,66.22
2022-09-12T16:27:40.438Z,66.28
2022-09-12T16:30:09.097Z,66.01
2022-09-12T16:32:38.297Z,66.00
2022-09-12T16:35:06.172Z,66.31
2022-09-12T16:37:34.963Z,66.16
2022-09-12T16:40:03.384Z,66.38
2022-09-12T16:42:30.854Z,66.06
2022-09-12T16:44:58.186Z,65.94
2022-09-12T16:47:25.402Z,66.62
2022-09-12T16:49:52.429Z,66.51
2022-09-12T16:52:19.586Z,66.48
2022-09-12T16:54:46.607Z,66.51
2022-09-12T16:57:13.743Z,66.65
2022-09-12T16:59:41.195Z,66.43
2022-09-12T17:02:11.577Z,66.40
2022-09-12T17:04:38.596Z,66.43
2022-09-12T17:07:06.144Z,66.36
2022-09-12T17:09:33.280Z,66.57
2022-09-12T17:12:00.964Z,66.56
2022-09-12T17:14:27.953Z,64.28
2022-09-12T17:16:54.888Z,65.85
2022-09-12T17:19:26.828Z,66.20
2022-09-12T17:21:55.232Z,66.25
2022-09-12T17:24:23.302Z,66.54
2022-09-12T17:26:51.571Z,66.47
2022-09-12T17:29:18.809Z,66.15
2022-09-12T17:31:48.978Z,66.44
2022-09-12T17:34:18.049Z,66.32
2022-09-12T17:36:46.264Z,66.57
2022-09-12T17:39:14.404Z,63.34
2022-09-12T17:41:43.088Z,62.45
2022-09-12T17:44:13.282Z,61.29
2022-09-12T17:46:41.130Z,60.11
2022-09-12T17:49:11.915Z,60.64
2022-09-12T17:51:40.733Z,59.96
2022-09-12T17:54:14.347Z,59.60
2022-09-12T17:56:41.643Z,60.11
2022-09-12T17:59:11.302Z,59.92
2022-09-12T18:01:56.861Z,59.63
2022-09-12T18:04:23.880Z,61.98
2022-09-12T18:06:51.286Z,62.94
2022-09-12T18:09:21.102Z,63.78
2022-09-12T18:11:49.621Z,64.46
2022-09-12T18:14:17.689Z,64.85
2022-09-12T18:16:46.087Z,64.97
2022-09-12T18:19:13.779Z,65.06
2022-09-12T18:21:41.022Z,63.18
2022-09-12T18:24:09.399Z,61.17
2022-09-12T18:26:37.304Z,60.22
2022-09-12T18:29:04.959Z,60.15
2022-09-12T18:31:34.329Z,60.00
2022-09-12T18:34:02.983Z,59.38
2022-09-12T18:36:31.695Z,59.13
2022-09-12T18:39:01.886Z,59.77
2022-09-12T18:41:29.856Z,60.73
2022-09-12T18:43:58.856Z,61.86
2022-09-12T18:46:28.185Z,60.67
2022-09-12T18:48:59.143Z,61.63
2022-09-12T18:51:31.922Z,62.62
2022-09-12T18:54:03.627Z,63.37
2022-09-12T18:56:33.610Z,63.93
2022-09-12T18:59:03.930Z,63.90
2022-09-12T19:01:36.808Z,64.31
2022-09-12T19:04:06.411Z,64.65
2022-09-12T19:06:44.901Z,64.63
2022-09-12T19:09:14.560Z,64.77
2022-09-12T19:11:52.244Z,65.10
2022-09-12T19:14:26.984Z,65.17
2022-09-12T19:16:54.958Z,65.26
2022-09-12T19:19:26.041Z,65.41
2022-09-12T19:21:53.948Z,65.50
2022-09-12T19:24:22.587Z,65.52
2022-09-12T19:26:53.999Z,65.49
2022-09-12T19:29:22.184Z,65.60
2022-09-12T19:31:50.339Z,65.56
2022-09-12T19:34:17.694Z,65.30
2022-09-12T19:36:48.574Z,64.61
2022-09-12T19:39:20.167Z,61.69
2022-09-12T19:41:48.312Z,61.58
2022-09-12T19:44:15.569Z,62.98
2022-09-12T19:46:43.097Z,64.49
2022-09-12T19:49:12.083Z,65.01
2022-09-12T19:51:39.388Z,65.29
2022-09-12T19:54:08.263Z,65.53
2022-09-12T19:56:36.693Z,65.53
2022-09-12T19:59:03.803Z,65.74
2022-09-12T20:01:31.328Z,65.80
2022-09-12T20:04:02.699Z,66.12
2022-09-12T20:06:30.404Z,66.07
2022-09-12T20:08:58.798Z,66.21
2022-09-12T20:11:26.417Z,66.22
2022-09-12T20:13:55.682Z,66.33
2022-09-12T20:16:29.793Z,66.32
2022-09-12T20:19:04.025Z,66.30
2022-09-12T20:21:34.274Z,66.63
2022-09-12T20:24:12.690Z,66.59
2022-09-12T20:26:41.354Z,66.26
2022-09-12T20:29:13.882Z,66.70
2022-09-12T20:31:43.532Z,66.47
2022-09-12T20:34:21.975Z,66.24
2022-09-12T20:36:49.509Z,66.29
2022-09-12T20:39:20.806Z,66.18
2022-09-12T20:41:48.393Z,66.23
2022-09-12T20:44:16.715Z,66.13
2022-09-12T20:46:47.508Z,66.35
2022-09-12T20:49:15.434Z,66.05
2022-09-12T20:51:46.758Z,66.18
2022-09-12T20:54:14.626Z,66.06
2022-09-12T20:56:43.120Z,66.52
2022-09-12T20:59:13.497Z,65.98
2022-09-12T21:01:41.916Z,66.20
2022-09-12T21:04:13.060Z,65.95
2022-09-12T21:06:42.629Z,66.20
2022-09-12T21:09:09.804Z,65.90
2022-09-12T21:11:37.033Z,66.09
2022-09-12T21:14:04.533Z,65.40
2022-09-12T21:16:32.107Z,65.71
2022-09-12T21:18:59.962Z,65.76
2022-09-12T21:21:27.581Z,65.93
2022-09-12T21:23:59.382Z,66.07
2022-09-12T21:26:27.015Z,65.90
2022-09-12T21:28:54.245Z,65.49
2022-09-12T21:31:21.662Z,65.69
2022-09-12T21:33:50.069Z,65.29
2022-09-12T21:36:17.781Z,65.57
2022-09-12T21:38:44.960Z,66.02
2022-09-12T21:41:15.975Z,66.00
2022-09-12T21:43:43.389Z,65.68
2022-09-12T21:46:11.150Z,65.79
2022-09-12T21:48:38.589Z,66.11
2022-09-12T21:51:06.163Z,65.93
2022-09-12T21:53:33.603Z,66.25
2022-09-12T21:56:07.487Z,65.93
2022-09-12T21:58:35.171Z,66.01
2022-09-12T22:01:02.362Z,66.04
2022-09-12T22:03:30.257Z,66.19
2022-09-12T22:06:02.049Z,66.12
2022-09-12T22:08:30.637Z,66.10
2022-09-12T22:11:02.510Z,66.05
2022-09-12T22:13:31.794Z,66.15
2022-09-12T22:15:59.336Z,66.11
2022-09-12T22:18:26.280Z,66.38
2022-09-12T22:21:01.028Z,66.10
2022-09-12T22:23:46.697Z,65.84
2022-09-12T22:26:14.547Z,66.11
2022-09-12T22:28:41.938Z,66.16
2022-09-12T22:31:14.266Z,66.06
2022-09-12T22:33:41.814Z,66.21
2022-09-12T22:36:10.263Z,66.17
2022-09-12T22:38:37.557Z,66.19
2022-09-12T22:41:06.408Z,66.22
2022-09-12T22:43:34.737Z,66.18
2022-09-12T22:46:02.296Z,66.10
2022-09-12T22:48:29.197Z,66.14
2022-09-12T22:50:56.254Z,66.21
2022-09-12T22:53:23.268Z,66.45
2022-09-12T22:55:50.654Z,66.28
2022-09-12T22:58:17.590Z,66.42
2022-09-12T23:00:50.482Z,66.36
2022-09-12T23:03:20.795Z,66.31
2022-09-12T23:05:48.560Z,66.62
2022-09-12T23:08:19.606Z,66.62
2022-09-12T23:10:47.111Z,66.34
2022-09-12T23:13:14.093Z,66.37
2022-09-12T23:15:40.907Z,66.39
2022-09-12T23:18:08.708Z,66.25
2022-09-12T23:20:35.506Z,66.43
2022-09-12T23:23:02.316Z,66.13
2022-09-12T23:25:29.286Z,66.34
2022-09-12T23:27:56.130Z,66.47
2022-09-12T23:30:23.021Z,66.32
2022-09-12T23:32:49.946Z,66.61
2022-09-12T23:35:19.733Z,66.58
2022-09-12T23:37:47.794Z,66.43
2022-09-12T23:40:14.830Z,66.37
2022-09-12T23:42:41.769Z,66.39
2022-09-12T23:45:10.592Z,66.69
2022-09-12T23:47:37.591Z,66.60
2022-09-12T23:50:04.908Z,66.44
2022-09-12T23:52:31.805Z,66.57
2022-09-12T23:54:58.626Z,66.31
2022-09-12T23:57:25.528Z,66.38
2022-09-12T23:59:52.346Z,66.44
